createdAt,value
2023-05-09T00:00:20.527Z,2.97
2023-05-09T00:02:48.845Z,3.03
2023-05-09T00:05:17.917Z,3.00
2023-05-09T00:07:46.127Z,3.50
2023-05-09T00:10:16.254Z,3.05
2023-05-09T00:12:44.901Z,2.88
2023-05-09T00:15:14.013Z,3.67
2023-05-09T00:17:42.562Z,2.85
2023-05-09T00:20:12.593Z,3.10
2023-05-09T00:22:41.696Z,3.13
2023-05-09T00:25:12.310Z,2.83
2023-05-09T00:27:42.028Z,2.75
2023-05-09T00:30:10.825Z,2.88
2023-05-09T00:32:40.386Z,3.60
2023-05-09T00:35:10.285Z,3.30
2023-05-09T00:37:38.979Z,2.80
2023-05-09T00:40:09.309Z,2.95
2023-05-09T00:42:38.266Z,3.03
2023-05-09T00:45:10.163Z,3.05
2023-05-09T00:47:42.646Z,2.55
2023-05-09T00:50:11.585Z,2.75
2023-05-09T00:52:40.411Z,3.10
2023-05-09T00:55:09.976Z,3.28
2023-05-09T00:57:38.498Z,3.22
2023-05-09T01:00:13.485Z,2.97
2023-05-09T01:02:43.247Z,3.15
2023-05-09T01:05:12.667Z,3.67
2023-05-09T01:07:47.655Z,3.63
2023-05-09T01:10:24.379Z,2.75
2023-05-09T01:13:00.443Z,2.90
2023-05-09T01:15:35.462Z,3.75
2023-05-09T01:18:10.502Z,2.85
2023-05-09T01:20:45.692Z,3.88
2023-05-09T01:23:36.991Z,3.03
2023-05-09T01:26:07.382Z,2.50
2023-05-09T01:28:52.949Z,2.90
2023-05-09T01:31:24.828Z,3.42
2023-05-09T01:33:58.398Z,3.00
2023-05-09T01:36:33.216Z,3.65
2023-05-09T01:39:04.357Z,3.22
2023-05-09T01:41:37.489Z,3.40
2023-05-09T01:44:09.629Z,2.90
2023-05-09T01:46:40.576Z,3.45
2023-05-09T01:49:10.439Z,2.90
2023-05-09T01:51:42.942Z,3.90
2023-05-09T01:54:13.842Z,3.50
2023-05-09T01:56:44.100Z,2.70
2023-05-09T01:59:16.475Z,3.78
2023-05-09T02:01:48.411Z,2.70
2023-05-09T02:04:19.201Z,2.92
2023-05-09T02:06:51.986Z,3.40
2023-05-09T02:09:21.933Z,3.15
2023-05-09T02:11:50.551Z,3.20
2023-05-09T02:14:19.143Z,3.65
2023-05-09T02:16:49.867Z,3.58
2023-05-09T02:19:18.833Z,3.10
2023-05-09T02:21:47.111Z,3.72
2023-05-09T02:24:15.724Z,2.85
2023-05-09T02:26:44.636Z,4.07
2023-05-09T02:29:13.653Z,3.53
2023-05-09T02:31:43.938Z,3.47
2023-05-09T02:34:15.027Z,4.40
2023-05-09T02:36:43.847Z,3.67
2023-05-09T02:39:12.184Z,3.35
2023-05-09T02:41:40.480Z,3.20
2023-05-09T02:44:08.849Z,3.70
2023-05-09T02:46:37.081Z,3.28
2023-05-09T02:49:05.504Z,3.72
2023-05-09T02:51:35.215Z,3.20
2023-05-09T02:54:03.673Z,2.90
2023-05-09T02:56:32.328Z,2.90
2023-05-09T02:59:00.545Z,3.65
2023-05-09T03:01:28.882Z,3.58
2023-05-09T03:03:57.453Z,4.03
2023-05-09T03:06:26.663Z,4.32
2023-05-09T03:08:56.848Z,2.53
2023-05-09T03:11:26.679Z,3.05
2023-05-09T03:13:55.048Z,3.83
2023-05-09T03:16:24.066Z,3.55
2023-05-09T03:18:53.106Z,2.97
2023-05-09T03:21:21.566Z,3.45
2023-05-09T03:23:50.297Z,2.90
2023-05-09T03:26:20.164Z,3.08
2023-05-09T03:28:49.074Z,3.70
2023-05-09T03:31:17.693Z,3.30
2023-05-09T03:33:46.189Z,3.55
2023-05-09T03:36:14.405Z,3.25
2023-05-09T03:38:46.018Z,3.13
2023-05-09T03:41:16.580Z,3.30
2023-05-09T03:43:48.486Z,3.00
2023-05-09T03:46:17.580Z,3.95
2023-05-09T03:48:49.496Z,2.78
2023-05-09T03:51:18.696Z,3.40
2023-05-09T03:53:48.082Z,2.90
2023-05-09T03:56:16.824Z,2.60
2023-05-09T03:58:52.598Z,3.30
2023-05-09T04:01:22.131Z,3.35
2023-05-09T04:03:50.612Z,3.58
2023-05-09T04:06:18.755Z,3.08
2023-05-09T04:08:49.926Z,3.95
2023-05-09T04:11:19.156Z,2.80
2023-05-09T04:13:48.840Z,3.05
2023-05-09T04:16:28.090Z,3.35
2023-05-09T04:18:56.878Z,3.20
2023-05-09T04:21:29.135Z,2.70
2023-05-09T04:24:00.977Z,2.60
2023-05-09T04:26:39.529Z,3.22
2023-05-09T04:29:11.625Z,2.90
2023-05-09T04:31:42.075Z,3.55
2023-05-09T04:34:13.644Z,2.65
2023-05-09T04:36:42.346Z,2.97
2023-05-09T04:39:11.212Z,3.13
2023-05-09T04:41:44.552Z,2.97
2023-05-09T04:44:13.942Z,3.22
2023-05-09T04:46:44.686Z,3.25
2023-05-09T04:49:13.783Z,2.83
2023-05-09T04:51:44.195Z,2.97
2023-05-09T04:54:12.775Z,3.67
2023-05-09T04:56:42.500Z,2.70
2023-05-09T04:59:10.937Z,3.00
2023-05-09T05:01:39.522Z,2.53
2023-05-09T05:04:10.338Z,2.83
2023-05-09T05:06:38.802Z,3.50
2023-05-09T05:09:07.884Z,3.20
2023-05-09T05:11:36.366Z,3.75
2023-05-09T05:14:06.147Z,3.13
2023-05-09T05:17:01.045Z,2.92
2023-05-09T05:19:31.227Z,3.22
2023-05-09T05:22:00.042Z,2.85
2023-05-09T05:24:29.488Z,2.83
2023-05-09T05:26:57.985Z,3.50
2023-05-09T05:29:27.553Z,2.70
2023-05-09T05:31:56.318Z,3.00
2023-05-09T05:34:24.797Z,3.75
2023-05-09T05:36:54.851Z,2.55
2023-05-09T05:39:24.136Z,3.00
2023-05-09T05:41:54.320Z,2.45
2023-05-09T05:44:22.742Z,2.83
2023-05-09T05:46:51.242Z,2.55
2023-05-09T05:49:19.800Z,2.90
2023-05-09T05:51:48.330Z,3.05
2023-05-09T05:54:18.751Z,3.53
2023-05-09T05:56:47.134Z,3.17
2023-05-09T05:59:16.390Z,3.08
2023-05-09T06:01:45.135Z,3.15
2023-05-09T06:04:13.840Z,3.00
2023-05-09T06:06:44.235Z,3.88
2023-05-09T06:09:12.649Z,2.78
2023-05-09T06:11:43.143Z,3.08
2023-05-09T06:14:11.439Z,2.90
2023-05-09T06:16:41.705Z,3.25
2023-05-09T06:19:10.410Z,3.05
2023-05-09T06:21:38.953Z,3.03
2023-05-09T06:24:14.409Z,2.70
2023-05-09T06:26:51.558Z,2.70
2023-05-09T06:29:20.230Z,2.90
2023-05-09T06:31:50.070Z,3.00
2023-05-09T06:34:18.200Z,2.90
2023-05-09T06:36:46.607Z,3.22
2023-05-09T06:39:14.886Z,2.97
2023-05-09T06:41:43.729Z,2.50
2023-05-09T06:44:13.456Z,2.63
2023-05-09T06:46:41.831Z,2.83
2023-05-09T06:49:11.374Z,2.22
2023-05-09T06:51:40.114Z,2.33
2023-05-09T06:54:08.697Z,2.40
2023-05-09T06:56:37.804Z,2.45
2023-05-09T06:59:06.194Z,2.70
2023-05-09T07:01:36.052Z,2.47
2023-05-09T07:04:04.477Z,2.78
2023-05-09T07:06:33.306Z,2.88
2023-05-09T07:09:01.969Z,2.95
2023-05-09T07:11:30.136Z,3.00
2023-05-09T07:13:58.457Z,2.92
2023-05-09T07:16:28.720Z,2.58
2023-05-09T07:18:58.638Z,3.58
2023-05-09T07:21:27.175Z,3.25
2023-05-09T07:23:55.589Z,3.00
2023-05-09T07:26:24.499Z,2.90
2023-05-09T07:28:53.710Z,2.63
2023-05-09T07:31:22.309Z,2.90
2023-05-09T07:33:50.731Z,2.42
2023-05-09T07:36:20.577Z,2.97
2023-05-09T07:38:50.617Z,2.90
2023-05-09T07:41:18.761Z,2.55
2023-05-09T07:43:47.726Z,2.85
2023-05-09T07:46:16.246Z,3.10
2023-05-09T07:48:44.715Z,2.67
2023-05-09T07:51:13.161Z,2.78
2023-05-09T07:53:42.791Z,3.50
2023-05-09T07:56:12.012Z,2.95
2023-05-09T07:58:40.480Z,2.65
2023-05-09T08:01:09.234Z,2.78
2023-05-09T08:03:37.555Z,2.50
2023-05-09T08:06:05.978Z,3.20
2023-05-09T08:08:34.622Z,2.45
2023-05-09T08:11:06.220Z,2.50
2023-05-09T08:13:34.721Z,3.20
2023-05-09T08:16:03.883Z,3.08
2023-05-09T08:18:32.600Z,3.50
2023-05-09T08:21:01.405Z,2.75
2023-05-09T08:23:30.472Z,2.88
2023-05-09T08:25:59.299Z,3.28
2023-05-09T08:28:30.160Z,3.15
2023-05-09T08:30:58.914Z,3.00
2023-05-09T08:33:27.017Z,3.47
2023-05-09T08:35:57.083Z,2.50
2023-05-09T08:38:25.774Z,2.55
2023-05-09T08:40:53.958Z,2.30
2023-05-09T08:43:25.498Z,3.10
2023-05-09T08:46:00.583Z,3.13
2023-05-09T08:48:29.786Z,2.92
2023-05-09T08:50:59.434Z,3.10
2023-05-09T08:53:28.316Z,2.95
2023-05-09T08:55:56.926Z,2.42
2023-05-09T08:58:25.280Z,2.65
2023-05-09T09:00:56.613Z,2.78
2023-05-09T09:03:26.423Z,2.83
2023-05-09T09:05:56.547Z,2.85
2023-05-09T09:08:25.665Z,2.90
2023-05-09T09:10:55.351Z,3.17
2023-05-09T09:13:24.493Z,2.67
2023-05-09T09:15:57.628Z,2.60
2023-05-09T09:18:34.352Z,2.70
2023-05-09T09:21:08.382Z,2.65
2023-05-09T09:23:41.061Z,2.60
2023-05-09T09:26:09.138Z,3.30
2023-05-09T09:28:37.723Z,2.63
2023-05-09T09:31:23.900Z,2.90
2023-05-09T09:33:52.597Z,2.45
2023-05-09T09:36:28.052Z,3.40
2023-05-09T09:39:01.487Z,3.13
2023-05-09T09:41:34.012Z,2.70
2023-05-09T09:44:08.896Z,2.90
2023-05-09T09:46:54.715Z,2.90
2023-05-09T09:49:24.374Z,3.45
2023-05-09T09:52:16.922Z,2.53
2023-05-09T09:54:45.952Z,2.80
2023-05-09T09:57:33.641Z,2.15
2023-05-09T10:00:02.253Z,2.83
2023-05-09T10:02:34.362Z,2.85
2023-05-09T10:05:11.894Z,2.95
2023-05-09T10:07:40.266Z,2.97
2023-05-09T10:10:10.268Z,2.65
2023-05-09T10:12:39.162Z,2.88
2023-05-09T10:15:10.900Z,2.35
2023-05-09T10:17:40.837Z,2.70
2023-05-09T10:20:11.504Z,2.65
2023-05-09T10:22:41.216Z,2.90
2023-05-09T10:25:15.992Z,2.25
2023-05-09T10:27:47.652Z,2.70
2023-05-09T10:30:19.325Z,2.70
2023-05-09T10:32:55.253Z,2.30
2023-05-09T10:35:28.054Z,2.50
2023-05-09T10:37:58.218Z,2.63
2023-05-09T10:40:28.807Z,2.75
2023-05-09T10:42:57.468Z,2.33
2023-05-09T10:45:26.148Z,2.70
2023-05-09T10:47:57.257Z,2.55
2023-05-09T10:50:26.531Z,2.22
2023-05-09T10:53:08.960Z,2.30
2023-05-09T10:55:38.744Z,2.45
2023-05-09T10:58:25.370Z,2.53
2023-05-09T11:00:57.133Z,2.50
2023-05-09T11:03:28.952Z,2.30
2023-05-09T11:05:58.910Z,1.83
2023-05-09T11:08:28.180Z,2.97
2023-05-09T11:11:00.636Z,2.15
2023-05-09T11:13:33.838Z,2.20
2023-05-09T11:16:12.541Z,3.30
2023-05-09T11:18:55.187Z,2.30
2023-05-09T11:21:23.775Z,3.17
2023-05-09T11:23:55.058Z,2.88
2023-05-09T11:26:24.772Z,3.63
2023-05-09T11:28:55.346Z,2.83
2023-05-09T11:31:23.557Z,2.17
2023-05-09T11:33:58.511Z,2.30
2023-05-09T11:36:33.776Z,2.85
2023-05-09T11:39:05.244Z,2.15
2023-05-09T11:41:41.257Z,2.85
2023-05-09T11:44:17.034Z,2.75
2023-05-09T11:46:47.660Z,2.17
2023-05-09T11:49:17.169Z,2.95
2023-05-09T11:51:46.724Z,2.58
2023-05-09T11:54:15.214Z,2.53
2023-05-09T11:56:44.362Z,2.28
2023-05-09T11:59:15.412Z,2.85
2023-05-09T12:01:44.165Z,2.53
2023-05-09T12:04:12.589Z,2.90
2023-05-09T12:06:41.334Z,2.40
2023-05-09T12:09:12.144Z,2.70
2023-05-09T12:11:40.460Z,2.05
2023-05-09T12:14:09.026Z,2.50
2023-05-09T12:16:46.284Z,3.55
2023-05-09T12:19:15.476Z,3.17
2023-05-09T12:21:43.884Z,2.65
2023-05-09T12:24:13.708Z,3.45
2023-05-09T12:26:41.862Z,2.30
2023-05-09T12:29:10.425Z,2.15
2023-05-09T12:31:38.915Z,2.90
2023-05-09T12:34:08.063Z,3.03
2023-05-09T12:36:37.398Z,2.10
2023-05-09T12:39:10.626Z,2.92
2023-05-09T12:42:00.611Z,2.88
2023-05-09T12:44:30.721Z,2.25
2023-05-09T12:47:00.760Z,2.90
2023-05-09T12:49:29.626Z,2.60
2023-05-09T12:52:00.299Z,2.10
2023-05-09T12:54:31.174Z,2.22
2023-05-09T12:57:00.800Z,2.10
2023-05-09T12:59:30.477Z,2.63
2023-05-09T13:02:00.861Z,2.53
2023-05-09T13:04:29.819Z,2.55
2023-05-09T13:07:00.230Z,2.90
2023-05-09T13:09:28.967Z,2.65
2023-05-09T13:11:59.141Z,2.00
2023-05-09T13:14:29.072Z,3.10
2023-05-09T13:16:57.685Z,2.38
2023-05-09T13:19:26.205Z,2.50
2023-05-09T13:21:56.878Z,2.50
2023-05-09T13:24:25.281Z,2.58
2023-05-09T13:26:53.341Z,3.20
2023-05-09T13:29:21.569Z,3.10
2023-05-09T13:31:51.380Z,2.45
2023-05-09T13:34:20.036Z,2.50
2023-05-09T13:36:48.249Z,2.83
2023-05-09T13:39:17.075Z,2.67
2023-05-09T13:41:45.967Z,3.03
2023-05-09T13:44:15.860Z,2.17
2023-05-09T13:46:44.334Z,2.45
2023-05-09T13:49:15.071Z,2.58
2023-05-09T13:51:43.349Z,2.55
2023-05-09T13:54:17.207Z,3.20
2023-05-09T13:56:46.003Z,3.08
2023-05-09T13:59:15.751Z,2.50
2023-05-09T14:01:44.593Z,3.38
2023-05-09T14:04:14.809Z,3.53
2023-05-09T14:06:48.216Z,2.40
2023-05-09T14:09:17.446Z,2.80
2023-05-09T14:11:45.849Z,3.60
2023-05-09T14:14:14.341Z,3.20
2023-05-09T14:16:42.723Z,3.00
2023-05-09T14:19:11.455Z,3.08
2023-05-09T14:21:42.778Z,2.83
2023-05-09T14:24:15.036Z,2.00
2023-05-09T14:26:45.494Z,2.90
2023-05-09T14:29:14.052Z,3.05
2023-05-09T14:31:42.585Z,3.10
2023-05-09T14:34:13.259Z,3.03
2023-05-09T14:36:43.584Z,2.55
2023-05-09T14:39:11.893Z,3.30
2023-05-09T14:41:40.770Z,2.70
2023-05-09T14:44:09.025Z,2.65
2023-05-09T14:46:38.009Z,2.80
2023-05-09T14:49:09.744Z,3.17
2023-05-09T14:51:38.002Z,3.25
2023-05-09T14:54:08.425Z,2.92
2023-05-09T14:56:36.951Z,2.90
2023-05-09T14:59:05.274Z,3.00
2023-05-09T15:01:34.240Z,3.65
2023-05-09T15:04:02.682Z,3.20
2023-05-09T15:06:31.078Z,3.03
2023-05-09T15:08:59.901Z,2.85
2023-05-09T15:11:36.410Z,3.65
2023-05-09T15:14:15.179Z,3.53
2023-05-09T15:16:44.358Z,3.35
2023-05-09T15:19:12.874Z,3.13
2023-05-09T15:21:41.530Z,3.10
2023-05-09T15:24:10.734Z,3.25
2023-05-09T15:26:40.490Z,3.40
2023-05-09T15:29:09.110Z,2.78
2023-05-09T15:31:38.398Z,2.75
2023-05-09T15:34:08.054Z,2.72
2023-05-09T15:36:36.383Z,2.78
2023-05-09T15:39:05.208Z,3.40
2023-05-09T15:41:34.320Z,3.30
2023-05-09T15:44:04.395Z,3.25
2023-05-09T15:46:34.213Z,3.17
2023-05-09T15:49:03.285Z,2.70
2023-05-09T15:51:32.751Z,2.70
2023-05-09T15:54:01.380Z,3.20
2023-05-09T15:56:29.786Z,3.60
2023-05-09T15:58:59.658Z,3.65
2023-05-09T16:01:33.947Z,2.70
2023-05-09T16:04:05.467Z,3.58
2023-05-09T16:06:34.558Z,2.72
2023-05-09T16:09:04.722Z,3.10
2023-05-09T16:11:33.235Z,3.25
2023-05-09T16:14:01.662Z,3.50
2023-05-09T16:16:31.414Z,2.45
2023-05-09T16:19:00.684Z,2.70
2023-05-09T16:21:29.649Z,3.30
2023-05-09T16:23:59.029Z,3.25
2023-05-09T16:26:27.181Z,3.42
2023-05-09T16:28:55.648Z,3.75
2023-05-09T16:31:26.872Z,3.45
2023-05-09T16:33:58.864Z,3.03
2023-05-09T16:36:29.145Z,2.97
2023-05-09T16:38:57.370Z,3.60
2023-05-09T16:41:25.950Z,3.13
2023-05-09T16:43:54.328Z,3.38
2023-05-09T16:46:22.858Z,3.10
2023-05-09T16:48:52.598Z,3.75
2023-05-09T16:51:22.749Z,3.50
2023-05-09T16:53:51.625Z,4.68
2023-05-09T16:56:20.034Z,3.95
2023-05-09T16:58:49.502Z,4.00
2023-05-09T17:01:17.568Z,4.55
2023-05-09T17:03:46.107Z,4.55
2023-05-09T17:06:14.686Z,4.40
2023-05-09T17:08:44.611Z,5.13
2023-05-09T17:11:13.345Z,4.78
2023-05-09T17:13:42.729Z,4.45
2023-05-09T17:16:11.486Z,4.00
2023-05-09T17:18:39.995Z,4.13
2023-05-09T17:21:08.593Z,3.90
2023-05-09T17:23:36.863Z,3.95
2023-05-09T17:26:07.306Z,5.10
2023-05-09T17:28:36.101Z,3.60
2023-05-09T17:31:05.850Z,3.75
2023-05-09T17:33:34.681Z,3.63
2023-05-09T17:36:03.148Z,4.25
2023-05-09T17:38:31.595Z,4.53
2023-05-09T17:41:00.003Z,4.80
2023-05-09T17:43:33.097Z,3.50
2023-05-09T17:46:01.479Z,4.15
2023-05-09T17:48:30.405Z,3.50
2023-05-09T17:50:58.917Z,5.25
2023-05-09T17:53:27.225Z,4.25
2023-05-09T17:55:55.438Z,3.67
2023-05-09T17:58:24.214Z,4.07
2023-05-09T18:00:55.551Z,4.53
2023-05-09T18:03:23.804Z,4.25
2023-05-09T18:05:51.802Z,3.90
2023-05-09T18:08:20.565Z,4.07
2023-05-09T18:10:49.245Z,3.75
2023-05-09T18:13:18.516Z,4.20
2023-05-09T18:15:46.809Z,3.90
2023-05-09T18:18:17.177Z,4.20
2023-05-09T18:20:47.591Z,4.82
2023-05-09T18:23:16.157Z,3.05
2023-05-09T18:25:48.521Z,3.70
2023-05-09T18:28:17.917Z,3.63
2023-05-09T18:30:46.445Z,4.18
2023-05-09T18:33:16.691Z,4.13
2023-05-09T18:35:44.779Z,4.28
2023-05-09T18:38:13.406Z,4.57
2023-05-09T18:40:42.876Z,4.30
2023-05-09T18:43:12.491Z,4.07
2023-05-09T18:45:45.293Z,4.30
2023-05-09T18:48:13.629Z,4.05
2023-05-09T18:50:44.194Z,4.07
2023-05-09T18:53:12.863Z,3.90
2023-05-09T18:55:41.748Z,3.70
2023-05-09T18:58:10.051Z,3.92
2023-05-09T19:00:39.512Z,2.95
2023-05-09T19:03:08.015Z,4.13
2023-05-09T19:05:36.485Z,4.00
2023-05-09T19:08:06.751Z,3.30
2023-05-09T19:10:36.661Z,3.80
2023-05-09T19:13:08.458Z,3.38
2023-05-09T19:15:37.412Z,3.05
2023-05-09T19:18:06.242Z,2.80
2023-05-09T19:20:34.617Z,4.50
2023-05-09T19:23:03.182Z,3.85
2023-05-09T19:25:34.076Z,4.10
2023-05-09T19:28:02.979Z,3.08
2023-05-09T19:30:31.612Z,3.92
2023-05-09T19:32:59.833Z,4.38
2023-05-09T19:35:28.581Z,3.20
2023-05-09T19:37:56.978Z,4.05
2023-05-09T19:40:25.383Z,4.13
2023-05-09T19:42:55.728Z,2.88
2023-05-09T19:45:25.077Z,3.65
2023-05-09T19:47:55.869Z,3.75
2023-05-09T19:50:27.996Z,3.50
2023-05-09T19:52:57.205Z,4.50
2023-05-09T19:55:31.089Z,3.55
2023-05-09T19:58:01.107Z,3.33
2023-05-09T20:00:29.545Z,3.15
2023-05-09T20:02:58.013Z,3.13
2023-05-09T20:05:26.618Z,3.55
2023-05-09T20:07:54.905Z,3.30
2023-05-09T20:10:23.278Z,3.67
2023-05-09T20:12:53.122Z,3.63
2023-05-09T20:15:23.494Z,3.88
2023-05-09T20:17:52.159Z,3.55
2023-05-09T20:20:20.633Z,3.78
2023-05-09T20:22:49.661Z,3.70
2023-05-09T20:25:18.668Z,5.75
2023-05-09T20:27:47.497Z,3.95
2023-05-09T20:30:17.487Z,3.63
2023-05-09T20:32:48.319Z,3.17
2023-05-09T20:36:09.803Z,4.05
2023-05-09T20:38:39.136Z,3.90
2023-05-09T20:41:07.718Z,3.10
2023-05-09T20:43:36.474Z,3.38
2023-05-09T20:46:04.830Z,4.00
2023-05-09T20:48:34.858Z,4.70
2023-05-09T20:51:02.978Z,3.20
2023-05-09T20:53:32.541Z,3.53
2023-05-09T20:56:01.329Z,3.70
2023-05-09T20:58:31.726Z,3.17
2023-05-09T21:01:00.259Z,3.78
2023-05-09T21:03:28.758Z,3.40
2023-05-09T21:05:59.590Z,3.65
2023-05-09T21:08:28.043Z,3.60
2023-05-09T21:10:56.410Z,2.80
2023-05-09T21:13:24.933Z,3.20
2023-05-09T21:15:53.405Z,2.88
2023-05-09T21:18:22.316Z,3.60
2023-05-09T21:20:50.689Z,3.65
2023-05-09T21:23:20.589Z,2.67
2023-05-09T21:25:48.741Z,2.97
2023-05-09T21:28:17.423Z,3.00
2023-05-09T21:30:53.394Z,3.05
2023-05-09T21:33:21.979Z,3.65
2023-05-09T21:35:51.137Z,3.30
2023-05-09T21:38:21.090Z,2.65
2023-05-09T21:40:51.458Z,2.85
2023-05-09T21:43:20.477Z,2.85
2023-05-09T21:45:48.576Z,2.72
2023-05-09T21:48:16.621Z,2.85
2023-05-09T21:50:46.124Z,2.30
2023-05-09T21:53:14.921Z,2.85
2023-05-09T21:55:44.606Z,2.95
2023-05-09T21:58:12.774Z,3.08
2023-05-09T22:00:42.075Z,2.50
2023-05-09T22:03:10.958Z,2.95
2023-05-09T22:05:39.385Z,2.38
2023-05-09T22:08:07.776Z,4.28
2023-05-09T22:10:38.085Z,2.90
2023-05-09T22:13:08.004Z,2.92
2023-05-09T22:15:36.165Z,2.95
2023-05-09T22:18:04.576Z,2.60
2023-05-09T22:20:33.316Z,2.35
2023-05-09T22:23:01.805Z,3.25
2023-05-09T22:25:29.899Z,2.67
2023-05-09T22:27:58.250Z,2.80
2023-05-09T22:30:28.063Z,2.63
2023-05-09T22:32:56.277Z,2.28
2023-05-09T22:35:25.096Z,2.38
2023-05-09T22:37:53.888Z,1.90
2023-05-09T22:40:22.002Z,2.83
2023-05-09T22:42:50.286Z,2.25
2023-05-09T22:45:19.846Z,2.20
2023-05-09T22:47:50.338Z,2.53
2023-05-09T22:50:19.251Z,2.00
2023-05-09T22:52:47.581Z,2.67
2023-05-09T22:55:15.747Z,3.00
2023-05-09T22:57:44.605Z,3.00
2023-05-09T23:00:14.712Z,2.30
2023-05-09T23:02:43.304Z,1.98
2023-05-09T23:05:13.125Z,2.30
2023-05-09T23:07:41.279Z,2.63
2023-05-09T23:10:09.955Z,2.55
2023-05-09T23:12:38.402Z,2.28
2023-05-09T23:15:10.089Z,2.60
2023-05-09T23:17:38.569Z,2.40
2023-05-09T23:20:07.931Z,2.38
2023-05-09T23:22:37.683Z,1.92
2023-05-09T23:25:07.301Z,2.33
2023-05-09T23:27:35.532Z,2.55
2023-05-09T23:30:03.773Z,2.45
2023-05-09T23:32:32.331Z,2.53
2023-05-09T23:35:00.962Z,2.33
2023-05-09T23:37:29.729Z,1.90
2023-05-09T23:39:59.390Z,1.88
2023-05-09T23:42:27.676Z,2.45
2023-05-09T23:44:56.043Z,1.88
2023-05-09T23:47:24.514Z,2.10
2023-05-09T23:49:53.301Z,1.85
2023-05-09T23:52:21.579Z,2.28
2023-05-09T23:54:50.375Z,2.13
2023-05-09T23:57:19.913Z,1.80
2023-05-09T23:59:48.526Z,2.00
